Portada
METAR-TAF:

METAR-TAF

Aeropuertos :

Aeropuerto de Pantelleria

Pantelaria, Italia

latitud: 36-49N, longitud: 011-58E, altitud: 191 m

Observación

El informe se hizo hace 1 hora y 21 minutos, a las 05:50 UTC
Viento 26 kt del este-noreste con ráfagas de 38 kt
Temperatura 13°C
Humedad 82%
Presión 1009 hPa
Visibilidad 10 km o más
Nubes dispersas a una altura de 1800 ft

METAR: LICG 160550Z 06026G38KT 9999 SCT018 13/10 Q1009

Hora: 09:11 (07:11 UTC)

Pronóstico

El informe se hizo hace 2 horas y 11 minutos, a las 05:00 UTC
Pronóstico válido del 16 a las 06 UTC al 16 a las 15 UTC
Viento 25 kt del este con ráfagas de 35 kt
Visibilidad: 8000 m
Nubes dispersas a una altura de 3000 ft
lluvia

TAF: LICG 160500Z 1606/1615 10025G35KT 8000 RA SCT030

Observaciones y pronósticos meteorológicos de más de 4000 aeropuertos (mensajes METAR y TAF).

Los puntos amarillos y rojos representan las estaciones disponibles.

Ponga el ratón en el punto deseado para ver el nombre de la estación.

Haga clic para ver las observaciones y los pronósticos meteorológicos.

Para cambiar el mapa : haga clic en los botones verdes con una cruz de color negro para hacer un zoom, en el botón verde con un guión para alejar o en las flechas verdes para mapas adyacentes.


METAR-TAF: